Henry Post Army Air Field (Fort Sill) Fort Sill US
ICAO: KFSI
IATA: FSI
Category: Medium
Scheduled Services: No

Elevation: 1189 ft
TransAlt. 18000 ft.

Airport Communications:
FORT SILL APP/DEP:118.6
ATIS:135.425
CLNC DEL:121.7
POST GND:121.7
DUNCAN SCTR:118.6
PMSV METRO:37.52
PTD:123.05
POST TWR:124.95

KFSI Zoom In..

Runways:

(A) RW 17 length 5001 ft width 150 ft
---- / hdg 173

(B) RW 35 length 5001 ft width 150 ft
---- / hdg 353

Location; KFSI
Day. 01 / Time. 16.56 Zulu
* Altimeter: 29.99
* Temperature: 08° c. 46.4°f.
* Wind from: 190° Speed 11 kn.
Dewpoint: -05° c.
Visibility: 10 Statute Miles.
Clouds: Clear (automated report).

KFSI 011656Z AUTO 19011KT 10SM CLR 08/M05 A2999 RMK AO2 SLP160 T00811050 $

Going to: --> -->


Wind From 190°
Speed 11 kn.

 
 
jpsmedia worldairports.se 2020   terms of use